createdAt,value
2023-04-27T00:01:37.092Z,67.01
2023-04-27T00:04:04.049Z,67.12
2023-04-27T00:06:32.140Z,67.11
2023-04-27T00:08:58.964Z,67.34
2023-04-27T00:11:25.834Z,67.71
2023-04-27T00:13:52.590Z,67.50
2023-04-27T00:16:19.061Z,67.63
2023-04-27T00:18:46.289Z,67.79
2023-04-27T00:21:13.188Z,67.91
2023-04-27T00:23:39.663Z,67.93
2023-04-27T00:26:06.206Z,67.96
2023-04-27T00:28:32.940Z,68.00
2023-04-27T00:30:59.562Z,68.11
2023-04-27T00:33:27.283Z,68.23
2023-04-27T00:35:54.327Z,68.14
2023-04-27T00:38:21.067Z,68.23
2023-04-27T00:40:47.579Z,68.37
2023-04-27T00:43:14.265Z,68.38
2023-04-27T00:45:45.143Z,68.49
2023-04-27T00:48:12.913Z,68.72
2023-04-27T00:50:40.618Z,68.89
2023-04-27T00:53:07.665Z,68.92
2023-04-27T00:55:34.254Z,68.92
2023-04-27T00:58:02.082Z,69.01
2023-04-27T01:00:28.751Z,69.13
2023-04-27T01:02:55.661Z,69.06
2023-04-27T01:05:25.303Z,69.16
2023-04-27T01:07:52.018Z,69.31
2023-04-27T01:10:19.841Z,69.18
2023-04-27T01:12:47.407Z,69.36
2023-04-27T01:15:14.040Z,69.63
2023-04-27T01:17:41.200Z,69.61
2023-04-27T01:20:11.386Z,69.43
2023-04-27T01:22:39.098Z,69.84
2023-04-27T01:25:07.503Z,69.82
2023-04-27T01:27:34.339Z,69.84
2023-04-27T01:30:00.838Z,69.98
2023-04-27T01:32:27.363Z,70.10
2023-04-27T01:34:54.756Z,70.11
2023-04-27T01:37:26.003Z,70.33
2023-04-27T01:39:52.539Z,70.36
2023-04-27T01:42:19.557Z,70.36
2023-04-27T01:44:46.170Z,70.37
2023-04-27T01:47:15.879Z,70.59
2023-04-27T01:49:42.975Z,70.67
2023-04-27T01:52:09.521Z,70.90
2023-04-27T01:54:36.110Z,70.79
2023-04-27T01:57:03.144Z,71.13
2023-04-27T01:59:29.806Z,71.13
2023-04-27T02:01:56.430Z,71.09
2023-04-27T02:04:23.641Z,71.22
2023-04-27T02:06:51.634Z,71.14
2023-04-27T02:09:18.092Z,71.11
2023-04-27T02:11:45.096Z,71.05
2023-04-27T02:14:11.777Z,71.23
2023-04-27T02:16:38.370Z,71.36
2023-04-27T02:19:05.122Z,71.23
2023-04-27T02:21:32.185Z,71.39
2023-04-27T02:23:58.791Z,71.48
2023-04-27T02:26:29.192Z,71.43
2023-04-27T02:28:56.550Z,71.63
2023-04-27T02:31:23.740Z,71.57
2023-04-27T02:33:50.842Z,71.72
2023-04-27T02:36:18.058Z,71.65
2023-04-27T02:38:44.630Z,71.56
2023-04-27T02:41:11.461Z,71.72
2023-04-27T02:43:38.122Z,71.64
2023-04-27T02:46:06.064Z,71.55
2023-04-27T02:48:33.107Z,71.78
2023-04-27T02:51:03.450Z,71.68
2023-04-27T02:53:30.150Z,71.69
2023-04-27T02:55:57.909Z,71.64
2023-04-27T02:58:24.759Z,71.67
2023-04-27T03:00:55.688Z,71.70
2023-04-27T03:03:23.295Z,71.69
2023-04-27T03:05:49.971Z,71.66
2023-04-27T03:08:16.473Z,71.82
2023-04-27T03:10:43.266Z,71.74
2023-04-27T03:13:10.086Z,72.03
2023-04-27T03:15:36.759Z,72.04
2023-04-27T03:18:03.810Z,71.99
2023-04-27T03:20:30.334Z,72.20
2023-04-27T03:22:56.873Z,72.30
2023-04-27T03:25:24.496Z,72.32
2023-04-27T03:27:50.968Z,72.42
2023-04-27T03:30:17.703Z,72.54
2023-04-27T03:32:46.335Z,72.48
2023-04-27T03:35:14.538Z,72.53
2023-04-27T03:37:41.181Z,72.66
2023-04-27T03:40:08.405Z,72.77
2023-04-27T03:42:35.012Z,72.68
2023-04-27T03:45:01.758Z,72.81
2023-04-27T03:47:28.598Z,72.99
2023-04-27T03:49:55.138Z,73.00
2023-04-27T03:52:25.016Z,73.00
2023-04-27T03:54:51.688Z,72.91
2023-04-27T03:57:18.380Z,73.01
2023-04-27T03:59:45.062Z,73.05
2023-04-27T04:02:11.907Z,73.31
2023-04-27T04:04:39.015Z,73.20
2023-04-27T04:07:05.886Z,73.28
2023-04-27T04:09:32.871Z,73.39
2023-04-27T04:11:59.661Z,73.24
2023-04-27T04:14:27.338Z,73.25
2023-04-27T04:16:55.031Z,73.17
2023-04-27T04:19:22.161Z,73.27
2023-04-27T04:21:48.952Z,73.30
2023-04-27T04:24:15.922Z,73.38
2023-04-27T04:26:43.463Z,73.19
2023-04-27T04:29:11.169Z,73.08
2023-04-27T04:31:38.312Z,73.20
2023-04-27T04:34:05.060Z,73.14
2023-04-27T04:36:31.726Z,73.10
2023-04-27T04:38:58.673Z,73.03
2023-04-27T04:41:25.436Z,73.13
2023-04-27T04:43:52.140Z,72.74
2023-04-27T04:46:20.096Z,72.73
2023-04-27T04:48:46.781Z,72.76
2023-04-27T04:51:13.564Z,72.73
2023-04-27T04:53:40.406Z,72.56
2023-04-27T04:56:11.555Z,72.41
2023-04-27T04:58:38.636Z,72.47
2023-04-27T05:01:06.291Z,72.31
2023-04-27T05:03:32.834Z,72.13
2023-04-27T05:05:59.560Z,72.05
2023-04-27T05:08:26.360Z,71.71
2023-04-27T05:10:55.215Z,71.69
2023-04-27T05:13:21.945Z,71.59
2023-04-27T05:15:48.834Z,71.58
2023-04-27T05:18:15.520Z,71.17
2023-04-27T05:20:42.330Z,70.75
2023-04-27T05:23:09.237Z,70.52
2023-04-27T05:25:45.195Z,70.49
2023-04-27T05:28:12.225Z,70.56
2023-04-27T05:30:39.011Z,70.10
2023-04-27T05:33:05.886Z,69.81
2023-04-27T05:35:33.869Z,69.92
2023-04-27T05:38:00.994Z,69.65
2023-04-27T05:40:27.798Z,69.42
2023-04-27T05:42:54.522Z,68.90
2023-04-27T05:45:23.911Z,69.16
2023-04-27T05:47:50.500Z,68.80
2023-04-27T05:50:17.295Z,68.58
2023-04-27T05:52:44.115Z,68.28
2023-04-27T05:55:10.798Z,68.82
2023-04-27T05:57:39.097Z,68.35
2023-04-27T06:00:10.049Z,67.78
2023-04-27T06:02:40.871Z,67.77
2023-04-27T06:05:08.191Z,67.90
2023-04-27T06:07:37.439Z,67.87
2023-04-27T06:10:05.036Z,67.53
2023-04-27T06:12:31.952Z,67.24
2023-04-27T06:14:58.418Z,67.38
2023-04-27T06:17:25.142Z,67.15
2023-04-27T06:19:51.722Z,66.63
2023-04-27T06:22:18.531Z,66.75
2023-04-27T06:24:46.446Z,67.03
2023-04-27T06:27:13.400Z,67.10
2023-04-27T06:29:40.580Z,66.91
2023-04-27T06:32:07.444Z,66.70
2023-04-27T06:34:34.631Z,66.51
2023-04-27T06:37:01.792Z,66.45
2023-04-27T06:39:28.553Z,66.46
2023-04-27T06:41:55.649Z,66.57
2023-04-27T06:44:24.904Z,66.39
2023-04-27T06:46:51.464Z,66.14
2023-04-27T06:49:18.202Z,66.23
2023-04-27T06:51:46.059Z,66.37
2023-04-27T06:54:13.141Z,65.99
2023-04-27T06:56:39.976Z,65.88
2023-04-27T06:59:10.886Z,65.64
2023-04-27T07:01:38.023Z,66.04
2023-04-27T07:04:05.126Z,66.09
2023-04-27T07:06:32.794Z,65.21
2023-04-27T07:08:59.570Z,64.94
2023-04-27T07:11:26.259Z,63.73
2023-04-27T07:13:52.839Z,63.22
2023-04-27T07:16:20.260Z,63.72
2023-04-27T07:18:47.217Z,64.33
2023-04-27T07:21:13.789Z,63.65
2023-04-27T07:23:43.159Z,62.71
2023-04-27T07:26:09.679Z,62.01
2023-04-27T07:28:37.677Z,62.16
2023-04-27T07:31:05.618Z,61.52
2023-04-27T07:33:32.974Z,62.21
2023-04-27T07:36:00.323Z,62.24
2023-04-27T07:38:28.575Z,61.98
2023-04-27T07:40:57.762Z,61.32
2023-04-27T07:43:25.176Z,60.98
2023-04-27T07:45:52.073Z,60.18
2023-04-27T07:48:19.036Z,59.79
2023-04-27T07:50:46.124Z,59.44
2023-04-27T07:53:13.297Z,60.10
2023-04-27T07:55:45.479Z,60.42
2023-04-27T07:58:12.659Z,59.89
2023-04-27T08:00:39.275Z,59.25
2023-04-27T08:03:07.266Z,60.05
2023-04-27T08:05:34.508Z,59.18
2023-04-27T08:08:01.941Z,58.63
2023-04-27T08:10:28.591Z,58.58
2023-04-27T08:12:55.469Z,58.39
2023-04-27T08:15:22.073Z,56.86
2023-04-27T08:17:48.663Z,55.58
2023-04-27T08:20:15.371Z,56.32
2023-04-27T08:22:42.479Z,56.25
2023-04-27T08:25:09.361Z,56.56
2023-04-27T08:27:39.688Z,56.11
2023-04-27T08:30:07.268Z,56.71
2023-04-27T08:32:34.219Z,56.63
2023-04-27T08:35:00.843Z,56.69
2023-04-27T08:37:27.710Z,55.96
2023-04-27T08:39:54.184Z,55.83
2023-04-27T08:42:21.185Z,54.99
2023-04-27T08:44:47.972Z,53.80
2023-04-27T08:47:14.512Z,54.52
2023-04-27T08:49:41.220Z,55.38
2023-04-27T08:52:15.831Z,53.87
2023-04-27T08:54:45.362Z,54.32
2023-04-27T08:57:13.581Z,54.78
2023-04-27T08:59:41.070Z,54.71
2023-04-27T09:02:19.473Z,54.70
2023-04-27T09:04:47.174Z,53.76
2023-04-27T09:07:15.450Z,53.85
2023-04-27T09:09:43.171Z,54.88
2023-04-27T09:12:20.870Z,53.72
2023-04-27T09:15:05.613Z,52.37
2023-04-27T09:17:33.356Z,52.53
2023-04-27T09:20:12.852Z,51.15
2023-04-27T09:22:47.079Z,51.32
2023-04-27T09:25:24.961Z,51.85
2023-04-27T09:27:51.825Z,51.67
2023-04-27T09:30:19.109Z,51.69
2023-04-27T09:33:04.284Z,52.02
2023-04-27T09:35:32.484Z,51.97
2023-04-27T09:38:00.287Z,51.58
2023-04-27T09:40:33.206Z,51.70
2023-04-27T09:43:03.273Z,52.43
2023-04-27T09:45:30.780Z,53.28
2023-04-27T09:47:57.948Z,54.29
2023-04-27T09:50:25.359Z,55.61
2023-04-27T09:52:51.998Z,55.54
2023-04-27T09:55:26.832Z,55.73
2023-04-27T09:57:59.901Z,56.11
2023-04-27T10:00:45.825Z,56.56
2023-04-27T10:03:26.790Z,57.77
2023-04-27T10:05:59.479Z,57.94
2023-04-27T10:08:26.280Z,57.58
2023-04-27T10:10:55.845Z,57.34
2023-04-27T10:13:26.657Z,57.21
2023-04-27T10:15:53.744Z,57.87
2023-04-27T10:18:30.337Z,58.12
2023-04-27T10:21:09.157Z,57.82
2023-04-27T10:23:46.328Z,58.74
2023-04-27T10:26:13.042Z,58.93
2023-04-27T10:28:40.907Z,59.34
2023-04-27T10:31:11.651Z,58.05
2023-04-27T10:33:45.871Z,57.60
2023-04-27T10:36:15.909Z,56.29
2023-04-27T10:38:42.423Z,55.61
2023-04-27T10:41:14.209Z,54.80
2023-04-27T10:43:40.917Z,54.80
2023-04-27T10:46:16.726Z,55.32
2023-04-27T10:48:44.910Z,54.60
2023-04-27T10:51:17.482Z,54.62
2023-04-27T10:53:44.273Z,54.28
2023-04-27T10:56:12.366Z,54.21
2023-04-27T11:01:09.630Z,53.90
2023-04-27T11:03:37.764Z,53.78
2023-04-27T11:06:06.378Z,53.87
2023-04-27T11:08:36.419Z,53.76
2023-04-27T11:11:05.833Z,53.59
2023-04-27T11:13:33.299Z,53.71
2023-04-27T11:16:04.487Z,53.30
2023-04-27T11:18:36.538Z,53.46
2023-04-27T11:21:09.054Z,52.35
2023-04-27T11:23:38.150Z,51.20
2023-04-27T11:26:17.257Z,49.64
2023-04-27T11:28:58.609Z,48.86
2023-04-27T11:31:26.629Z,51.02
2023-04-27T11:36:24.698Z,51.19
2023-04-27T11:38:57.184Z,50.67
2023-04-27T11:41:36.385Z,49.29
2023-04-27T11:44:08.436Z,49.76
2023-04-27T11:46:40.870Z,50.27
2023-04-27T11:49:08.451Z,49.77
2023-04-27T11:51:38.569Z,48.71
2023-04-27T11:54:06.947Z,48.58
2023-04-27T11:56:39.376Z,48.06
2023-04-27T11:59:17.452Z,48.05
2023-04-27T12:01:44.174Z,47.71
2023-04-27T12:04:10.957Z,47.24
2023-04-27T12:06:38.200Z,46.67
2023-04-27T12:09:04.939Z,44.94
2023-04-27T12:11:32.192Z,44.53
2023-04-27T12:14:00.527Z,45.21
2023-04-27T12:16:28.538Z,45.04
2023-04-27T12:18:56.536Z,45.27
2023-04-27T12:21:25.402Z,45.12
2023-04-27T12:23:52.286Z,44.93
2023-04-27T12:26:20.028Z,44.50
2023-04-27T12:28:49.574Z,44.99
2023-04-27T12:31:19.448Z,45.73
2023-04-27T12:33:48.785Z,46.24
2023-04-27T12:36:16.015Z,46.31
2023-04-27T12:38:43.304Z,46.36
2023-04-27T12:41:10.269Z,46.52
2023-04-27T12:43:37.704Z,45.99
2023-04-27T12:46:04.293Z,46.29
2023-04-27T12:48:32.971Z,45.63
2023-04-27T12:50:59.992Z,44.30
2023-04-27T12:53:27.769Z,42.89
2023-04-27T12:55:54.979Z,43.38
2023-04-27T12:58:21.675Z,43.48
2023-04-27T13:00:48.342Z,43.11
2023-04-27T13:03:15.291Z,43.46
2023-04-27T13:05:42.165Z,44.62
2023-04-27T13:08:08.701Z,43.92
2023-04-27T13:10:36.161Z,42.87
2023-04-27T13:13:03.467Z,43.76
2023-04-27T13:15:30.122Z,43.69
2023-04-27T13:17:58.388Z,43.81
2023-04-27T13:20:25.390Z,42.48
2023-04-27T13:22:52.317Z,43.42
2023-04-27T13:25:19.537Z,43.24
2023-04-27T13:27:46.457Z,43.60
2023-04-27T13:30:14.780Z,43.68
2023-04-27T13:32:41.462Z,44.26
2023-04-27T13:35:08.957Z,44.59
2023-04-27T13:37:35.616Z,44.89
2023-04-27T13:40:02.775Z,45.42
2023-04-27T13:42:29.783Z,45.84
2023-04-27T13:44:56.514Z,44.65
2023-04-27T13:47:23.198Z,45.26
2023-04-27T13:49:50.273Z,45.02
2023-04-27T13:52:16.743Z,45.07
2023-04-27T13:54:43.376Z,44.96
2023-04-27T13:57:10.319Z,45.00
2023-04-27T13:59:36.967Z,44.46
2023-04-27T14:02:03.557Z,44.83
2023-04-27T14:04:30.639Z,44.87
2023-04-27T14:06:57.253Z,45.42
2023-04-27T14:09:26.383Z,45.57
2023-04-27T14:11:57.076Z,45.11
2023-04-27T14:14:24.281Z,45.16
2023-04-27T14:16:53.570Z,44.58
2023-04-27T14:19:21.004Z,44.62
2023-04-27T14:21:49.495Z,43.70
2023-04-27T14:24:16.070Z,43.32
2023-04-27T14:26:43.646Z,43.10
2023-04-27T14:29:11.132Z,43.99
2023-04-27T14:31:38.889Z,43.42
2023-04-27T14:34:06.720Z,43.68
2023-04-27T14:36:34.049Z,43.75
2023-04-27T14:39:01.150Z,42.84
2023-04-27T14:41:28.346Z,42.80
2023-04-27T14:43:56.484Z,42.52
2023-04-27T14:46:23.424Z,42.66
2023-04-27T14:48:50.779Z,42.28
2023-04-27T14:51:17.816Z,42.70
2023-04-27T14:53:44.354Z,43.60
2023-04-27T14:56:12.216Z,43.76
2023-04-27T14:58:40.513Z,43.87
2023-04-27T15:01:07.729Z,44.45
2023-04-27T15:03:34.801Z,45.21
2023-04-27T15:06:02.515Z,45.82
2023-04-27T15:08:31.226Z,46.19
2023-04-27T15:10:59.595Z,46.02
2023-04-27T15:13:27.191Z,46.14
2023-04-27T15:15:55.493Z,46.13
2023-04-27T15:18:23.102Z,46.50
2023-04-27T15:20:59.513Z,46.84
2023-04-27T15:23:27.452Z,46.91
2023-04-27T15:25:57.928Z,46.73
2023-04-27T15:28:25.071Z,46.45
2023-04-27T15:30:51.829Z,46.47
2023-04-27T15:33:19.701Z,46.06
2023-04-27T15:35:47.006Z,46.48
2023-04-27T15:38:15.093Z,46.14
2023-04-27T15:40:41.883Z,46.03
2023-04-27T15:43:08.606Z,45.51
2023-04-27T15:45:35.373Z,45.43
2023-04-27T15:48:02.114Z,44.77
2023-04-27T15:50:29.025Z,45.53
2023-04-27T15:52:55.733Z,45.56
2023-04-27T15:55:22.412Z,46.06
2023-04-27T15:57:49.666Z,45.94
2023-04-27T16:00:21.793Z,45.97
2023-04-27T16:02:52.493Z,45.95
2023-04-27T16:05:19.257Z,46.00
2023-04-27T16:07:45.937Z,46.54
2023-04-27T16:10:13.259Z,46.79
2023-04-27T16:12:40.409Z,46.67
2023-04-27T16:15:10.764Z,46.73
2023-04-27T16:17:38.603Z,46.60
2023-04-27T16:20:06.111Z,46.85
2023-04-27T16:22:37.408Z,47.16
2023-04-27T16:25:09.633Z,46.99
2023-04-27T16:27:37.322Z,47.50
2023-04-27T16:30:06.039Z,47.67
2023-04-27T16:32:34.532Z,47.78
2023-04-27T16:35:02.346Z,47.97
2023-04-27T16:37:29.094Z,47.81
2023-04-27T16:39:59.009Z,47.98
2023-04-27T16:42:25.771Z,47.65
2023-04-27T16:44:52.545Z,47.61
2023-04-27T16:47:19.046Z,47.92
2023-04-27T16:49:45.942Z,48.04
2023-04-27T16:52:12.630Z,47.98
2023-04-27T16:54:39.202Z,48.18
2023-04-27T16:57:07.347Z,48.34
2023-04-27T16:59:34.396Z,48.56
2023-04-27T17:02:09.382Z,48.50
2023-04-27T17:04:43.731Z,48.79
2023-04-27T17:07:10.664Z,48.98
2023-04-27T17:09:37.673Z,49.03
2023-04-27T17:12:10.430Z,49.24
2023-04-27T17:14:38.168Z,49.62
2023-04-27T17:17:05.782Z,50.06
2023-04-27T17:19:32.382Z,50.67
2023-04-27T17:21:59.377Z,49.91
2023-04-27T17:24:25.996Z,49.91
2023-04-27T17:26:52.692Z,49.84
2023-04-27T17:29:20.946Z,50.13
2023-04-27T17:31:48.531Z,50.10
2023-04-27T17:34:15.417Z,51.07
2023-04-27T17:36:42.230Z,51.43
2023-04-27T17:39:08.750Z,51.66
2023-04-27T17:41:37.055Z,52.29
2023-04-27T17:44:04.327Z,52.24
2023-04-27T17:46:31.076Z,52.17
2023-04-27T17:48:58.298Z,53.16
2023-04-27T17:51:25.197Z,53.57
2023-04-27T17:53:51.710Z,53.95
2023-04-27T17:56:18.416Z,54.27
2023-04-27T17:58:45.127Z,54.37
2023-04-27T18:01:12.709Z,54.59
2023-04-27T18:03:41.393Z,54.61
2023-04-27T18:06:08.625Z,54.77
2023-04-27T18:08:35.086Z,54.85
2023-04-27T18:11:01.840Z,55.07
2023-04-27T18:13:31.162Z,55.09
2023-04-27T18:15:58.740Z,55.12
2023-04-27T18:18:26.801Z,55.23
2023-04-27T18:20:53.506Z,55.44
2023-04-27T18:23:20.553Z,55.89
2023-04-27T18:25:47.394Z,55.94
2023-04-27T18:28:14.100Z,56.18
2023-04-27T18:30:40.942Z,56.52
2023-04-27T18:33:07.889Z,56.89
2023-04-27T18:35:34.937Z,57.30
2023-04-27T18:38:02.856Z,57.47
2023-04-27T18:40:30.174Z,57.91
2023-04-27T18:42:57.386Z,58.02
2023-04-27T18:45:24.067Z,58.16
2023-04-27T18:47:51.247Z,58.28
2023-04-27T18:50:18.577Z,58.71
2023-04-27T18:52:45.808Z,58.84
2023-04-27T18:55:13.791Z,58.99
2023-04-27T18:57:40.447Z,59.02
2023-04-27T19:00:08.475Z,58.96
2023-04-27T19:02:35.366Z,59.28
2023-04-27T19:07:34.250Z,59.80
2023-04-27T19:10:00.948Z,60.00
2023-04-27T19:12:27.818Z,60.25
2023-04-27T19:14:54.675Z,60.39
2023-04-27T19:17:21.644Z,60.62
2023-04-27T19:19:48.500Z,61.10
2023-04-27T19:22:15.465Z,61.19
2023-04-27T19:24:42.203Z,61.42
2023-04-27T19:27:10.953Z,61.26
2023-04-27T19:29:55.272Z,61.57
2023-04-27T19:32:26.270Z,61.70
2023-04-27T19:34:55.627Z,61.87
2023-04-27T19:37:23.642Z,61.93
2023-04-27T19:39:50.708Z,61.94
2023-04-27T19:42:17.464Z,61.98
2023-04-27T19:44:44.321Z,62.22
2023-04-27T19:47:11.257Z,62.16
2023-04-27T19:49:38.674Z,62.41
2023-04-27T19:52:06.148Z,62.83
2023-04-27T19:54:33.030Z,62.86
2023-04-27T19:57:00.686Z,62.98
2023-04-27T19:59:27.389Z,63.06
2023-04-27T20:01:53.996Z,63.13
2023-04-27T20:04:22.083Z,63.02
2023-04-27T20:06:52.513Z,63.13
2023-04-27T20:09:19.069Z,63.35
2023-04-27T20:11:45.673Z,63.44
2023-04-27T20:14:12.440Z,63.41
2023-04-27T20:16:39.667Z,63.63
2023-04-27T20:19:06.476Z,63.76
2023-04-27T20:21:33.096Z,63.93
2023-04-27T20:23:59.938Z,64.05
2023-04-27T20:26:26.869Z,64.14
2023-04-27T20:28:53.384Z,64.42
2023-04-27T20:31:20.025Z,64.36
2023-04-27T20:33:47.047Z,64.46
2023-04-27T20:36:18.012Z,64.36
2023-04-27T20:38:45.610Z,64.71
2023-04-27T20:41:12.358Z,64.97
2023-04-27T20:43:39.448Z,64.86
2023-04-27T20:46:13.002Z,64.92
2023-04-27T20:48:40.164Z,65.07
2023-04-27T20:51:06.815Z,65.24
2023-04-27T20:53:33.991Z,65.21
2023-04-27T20:56:00.716Z,65.55
2023-04-27T20:58:27.670Z,65.71
2023-04-27T21:00:54.490Z,65.95
2023-04-27T21:03:21.776Z,65.94
2023-04-27T21:05:51.524Z,66.08
2023-04-27T21:08:18.728Z,66.05
2023-04-27T21:10:45.500Z,66.21
2023-04-27T21:13:12.166Z,66.45
2023-04-27T21:15:38.901Z,66.45
2023-04-27T21:20:33.238Z,66.52
2023-04-27T21:23:00.139Z,66.62
2023-04-27T21:25:26.790Z,66.73
2023-04-27T21:27:53.473Z,66.71
2023-04-27T21:30:20.239Z,66.66
2023-04-27T21:32:46.789Z,66.58
2023-04-27T21:35:13.499Z,66.52
2023-04-27T21:37:40.385Z,66.56
2023-04-27T21:40:07.512Z,66.86
2023-04-27T21:42:34.309Z,66.87
2023-04-27T21:45:02.356Z,67.12
2023-04-27T21:47:28.955Z,67.27
2023-04-27T21:49:55.814Z,67.30
2023-04-27T21:52:22.857Z,67.30
2023-04-27T21:54:49.475Z,67.44
2023-04-27T21:57:17.684Z,67.55
2023-04-27T21:59:45.548Z,67.61
2023-04-27T22:02:12.070Z,67.74
2023-04-27T22:04:39.072Z,67.74
2023-04-27T22:07:07.697Z,67.93
2023-04-27T22:09:37.538Z,67.96
2023-04-27T22:12:04.393Z,68.04
2023-04-27T22:14:31.317Z,68.17
2023-04-27T22:17:00.016Z,68.23
2023-04-27T22:19:27.338Z,68.26
2023-04-27T22:21:54.595Z,68.24
2023-04-27T22:24:21.091Z,68.27
2023-04-27T22:26:50.609Z,68.39
2023-04-27T22:29:17.673Z,68.33
2023-04-27T22:31:44.772Z,68.42
2023-04-27T22:34:12.312Z,68.49
2023-04-27T22:36:39.214Z,68.68
2023-04-27T22:39:06.482Z,68.70
2023-04-27T22:41:33.345Z,68.76
2023-04-27T22:44:00.449Z,68.77
2023-04-27T22:46:27.176Z,68.69
2023-04-27T22:48:53.774Z,68.67
2023-04-27T22:51:21.283Z,68.79
2023-04-27T22:53:48.072Z,68.64
2023-04-27T22:56:14.586Z,68.37
2023-04-27T22:58:41.224Z,68.49
2023-04-27T23:01:07.909Z,68.56
2023-04-27T23:03:34.832Z,68.58
2023-04-27T23:06:01.601Z,68.59
2023-04-27T23:08:28.898Z,68.49
2023-04-27T23:10:56.184Z,68.57
2023-04-27T23:13:26.984Z,68.70
2023-04-27T23:15:56.506Z,68.78
2023-04-27T23:18:24.468Z,68.78
2023-04-27T23:20:55.141Z,68.67
2023-04-27T23:23:21.675Z,68.75
2023-04-27T23:25:48.236Z,68.75
2023-04-27T23:28:14.985Z,68.93
2023-04-27T23:30:41.584Z,69.04
2023-04-27T23:33:08.327Z,69.03
2023-04-27T23:35:35.197Z,69.34
2023-04-27T23:38:01.758Z,69.27
2023-04-27T23:40:28.329Z,69.45
2023-04-27T23:42:55.393Z,69.39
2023-04-27T23:45:21.893Z,69.32
2023-04-27T23:47:48.552Z,69.50
2023-04-27T23:50:15.284Z,69.62
2023-04-27T23:52:42.102Z,69.39
2023-04-27T23:55:08.998Z,69.51
2023-04-27T23:57:35.762Z,69.44
